Time;durP1;ratioP1;P1;durP2;ratioP2;P2;SDS_P1;SDS_P2;PMS_P1;PMS_P2;Temp;Humidity;BMP_temperature;BMP_pressure;BME280_temperature;BME280_humidity;BME280_pressure;Samples;Min_cycle;Max_cycle;Signal;HPM_P1;HPM_P2
2022/12/11 00:01:51;;;;;;;79.90;21.42;;;;;;;;;;6266419;28;20041;-64
2022/12/11 00:04:51;;;;;;;56.85;17.77;;;;;;;;;;6255108;28;20059;-66
2022/12/11 00:07:52;;;;;;;67.53;19.10;;;;;;;;;;6258160;28;20411;-63
2022/12/11 00:10:52;;;;;;;56.35;17.20;;;;;;;;;;6245629;28;20045;-65
2022/12/11 00:13:53;;;;;;;68.93;19.92;;;;;;;;;;6252152;28;20104;-67
2022/12/11 00:16:54;;;;;;;53.58;17.45;;;;;;;;;;6262976;28;20132;-64
2022/12/11 00:19:54;;;;;;;66.60;18.42;;;;;;;;;;6254900;28;20381;-72
2022/12/11 00:22:55;;;;;;;78.95;22.52;;;;;;;;;;6266109;28;20045;-68
2022/12/11 00:25:56;;;;;;;56.95;16.13;;;;;;;;;;6264168;28;20041;-64
2022/12/11 00:28:56;;;;;;;65.03;21.40;;;;;;;;;;6267098;28;20045;-72
2022/12/11 00:31:57;;;;;;;60.17;19.88;;;;;;;;;;6267241;28;20060;-72
2022/12/11 00:34:57;;;;;;;68.97;18.73;;;;;;;;;;6265539;28;20044;-68
2022/12/11 00:37:58;;;;;;;65.85;17.90;;;;;;;;;;6266221;28;20072;-73
2022/12/11 00:40:59;;;;;;;62.63;18.73;;;;;;;;;;6259028;28;20045;-68
2022/12/11 00:44:00;;;;;;;59.40;18.85;;;;;;;;;;6256922;28;20045;-67
2022/12/11 00:47:00;;;;;;;62.17;17.45;;;;;;;;;;6261202;28;20475;-73
2022/12/11 00:50:01;;;;;;;61.35;17.38;;;;;;;;;;6258381;28;20504;-70
2022/12/11 00:53:03;;;;;;;72.10;21.17;;;;;;;;;;6256634;28;20718;-66
2022/12/11 00:56:19;;;;;;;70.43;21.35;;;;;;;;;;6244276;28;20415;-72
2022/12/11 00:59:19;;;;;;;77.43;23.02;;;;;;;;;;6245086;28;20444;-73
2022/12/11 01:02:20;;;;;;;79.57;23.85;;;;;;;;;;6246938;28;20140;-72
2022/12/11 01:05:21;;;;;;;65.82;19.83;;;;;;;;;;6241906;28;20059;-66
2022/12/11 01:08:22;;;;;;;54.70;19.17;;;;;;;;;;6244053;28;20653;-70
2022/12/11 01:11:22;;;;;;;62.85;17.83;;;;;;;;;;6242746;28;20045;-64
2022/12/11 01:14:23;;;;;;;68.15;19.27;;;;;;;;;;6243201;28;20135;-67
2022/12/11 01:17:23;;;;;;;70.50;17.83;;;;;;;;;;6244715;28;20045;-65
2022/12/11 01:20:26;;;;;;;58.90;18.48;;;;;;;;;;6243419;28;20053;-65
2022/12/11 01:23:27;;;;;;;64.57;18.48;;;;;;;;;;6241892;28;20045;-65
2022/12/11 01:26:29;;;;;;;80.93;23.58;;;;;;;;;;6243364;28;20392;-68
2022/12/11 01:29:30;;;;;;;56.75;16.48;;;;;;;;;;6242318;28;20050;-64
2022/12/11 01:32:31;;;;;;;60.00;18.20;;;;;;;;;;6246555;28;20120;-65
2022/12/11 01:35:32;;;;;;;63.05;17.63;;;;;;;;;;6246511;28;20056;-65
2022/12/11 01:38:33;;;;;;;70.70;19.90;;;;;;;;;;6249014;28;20046;-65
2022/12/11 01:41:33;;;;;;;76.78;22.27;;;;;;;;;;6247178;28;20049;-65
2022/12/11 01:44:34;;;;;;;62.60;18.27;;;;;;;;;;6247126;28;20049;-66
2022/12/11 01:47:34;;;;;;;59.38;17.10;;;;;;;;;;6247018;28;20045;-65
2022/12/11 01:50:46;;;;;;;78.60;22.20;;;;;;;;;;6248046;28;20127;-65
2022/12/11 01:54:00;;;;;;;69.80;18.47;;;;;;;;;;6245608;28;20167;-67
2022/12/11 01:57:05;;;;;;;51.38;15.93;;;;;;;;;;6245477;28;20657;-67
2022/12/11 02:00:06;;;;;;;56.05;18.15;;;;;;;;;;6247660;28;20068;-68
2022/12/11 02:03:08;;;;;;;78.47;19.92;;;;;;;;;;6246252;28;20553;-66
2022/12/11 02:06:38;;;;;;;76.80;18.70;;;;;;;;;;6245375;28;20617;-67
2022/12/11 02:09:42;;;;;;;72.35;18.95;;;;;;;;;;6246289;28;20309;-69
2022/12/11 02:12:45;;;;;;;68.10;18.30;;;;;;;;;;6247719;28;20057;-68
2022/12/11 02:15:52;;;;;;;58.40;18.08;;;;;;;;;;6246405;28;20061;-74
2022/12/11 02:19:01;;;;;;;74.70;18.98;;;;;;;;;;6246501;28;20061;-65
2022/12/11 02:22:08;;;;;;;60.80;17.17;;;;;;;;;;6247792;28;20059;-70
2022/12/11 02:25:16;;;;;;;77.47;21.52;;;;;;;;;;6246241;28;20045;-70
2022/12/11 02:28:54;;;;;;;82.03;21.33;;;;;;;;;;6245585;28;20043;-64
2022/12/11 02:32:02;;;;;;;72.72;18.65;;;;;;;;;;6148664;28;20047;-72
2022/12/11 02:35:25;;;;;;;61.70;17.65;;;;;;;;;;6245679;28;20059;-66
2022/12/11 02:38:33;;;;;;;76.07;21.15;;;;;;;;;;6236136;28;20100;-75
2022/12/11 02:41:35;;;;;;;65.47;17.77;;;;;;;;;;6245273;28;20055;-76
2022/12/11 02:44:37;;;;;;;67.70;19.65;;;;;;;;;;6248460;28;20048;-65
2022/12/11 02:47:38;;;;;;;64.88;17.42;;;;;;;;;;6262850;28;21028;-65
2022/12/11 02:50:44;;;;;;;76.60;20.33;;;;;;;;;;6248033;28;20099;-66
2022/12/11 02:53:46;;;;;;;69.38;19.65;;;;;;;;;;6243463;28;20638;-66
2022/12/11 02:56:55;;;;;;;68.85;18.50;;;;;;;;;;6246933;28;20107;-72
2022/12/11 02:59:56;;;;;;;73.57;19.65;;;;;;;;;;6249212;28;20063;-65
2022/12/11 03:02:57;;;;;;;66.80;18.50;;;;;;;;;;6248959;28;20437;-68
2022/12/11 03:05:57;;;;;;;71.43;19.33;;;;;;;;;;6250600;28;20056;-65
2022/12/11 03:08:58;;;;;;;68.38;19.15;;;;;;;;;;6251815;28;20090;-65
2022/12/11 03:11:58;;;;;;;68.55;19.17;;;;;;;;;;6270016;28;20397;-66
2022/12/11 03:15:02;;;;;;;67.95;19.58;;;;;;;;;;6248439;28;20098;-69
2022/12/11 03:18:14;;;;;;;63.75;19.15;;;;;;;;;;6248970;28;20047;-65
2022/12/11 03:21:35;;;;;;;68.05;17.27;;;;;;;;;;6250026;28;20052;-66
2022/12/11 03:24:44;;;;;;;56.35;15.25;;;;;;;;;;6247841;28;20037;-70
2022/12/11 03:28:04;;;;;;;68.57;17.65;;;;;;;;;;6246462;28;20045;-65
2022/12/11 03:31:11;;;;;;;67.10;17.25;;;;;;;;;;6245421;28;20534;-65
2022/12/11 03:34:35;;;;;;;57.10;17.40;;;;;;;;;;6249859;28;20046;-66
2022/12/11 03:37:39;;;;;;;59.08;17.05;;;;;;;;;;6258532;28;20860;-66
2022/12/11 03:40:43;;;;;;;62.33;16.85;;;;;;;;;;6257122;28;20107;-65
2022/12/11 03:43:44;;;;;;;67.00;18.90;;;;;;;;;;6250613;28;20045;-66
2022/12/11 03:46:47;;;;;;;72.25;16.85;;;;;;;;;;6248007;28;20109;-66
2022/12/11 03:49:50;;;;;;;63.50;16.70;;;;;;;;;;6255498;28;20110;-66
2022/12/11 03:52:51;;;;;;;64.25;16.52;;;;;;;;;;6246621;28;20057;-66
2022/12/11 03:55:55;;;;;;;66.97;17.63;;;;;;;;;;6242161;28;20048;-66
2022/12/11 03:58:57;;;;;;;80.00;18.25;;;;;;;;;;6247915;28;20053;-66
2022/12/11 04:01:58;;;;;;;67.70;18.33;;;;;;;;;;6247772;28;20077;-69
2022/12/11 04:04:58;;;;;;;65.35;18.40;;;;;;;;;;6263984;28;20049;-65
2022/12/11 04:07:59;;;;;;;72.75;18.05;;;;;;;;;;6244237;28;20092;-66
2022/12/11 04:24:19;;;;;;;69.25;18.02;;;;;;;;;;6246704;28;20137;-69
2022/12/11 04:27:53;;;;;;;78.07;22.10;;;;;;;;;;6250545;28;20045;-65
2022/12/11 04:30:48;;;;;;;68.80;19.35;;;;;;;;;;6260652;28;20128;-66
2022/12/11 04:33:49;;;;;;;69.85;21.83;;;;;;;;;;6249208;28;20054;-67
2022/12/11 04:36:49;;;;;;;74.57;20.50;;;;;;;;;;6245602;28;20037;-66
2022/12/11 04:39:50;;;;;;;80.65;20.75;;;;;;;;;;6253316;28;20144;-66
2022/12/11 04:42:51;;;;;;;73.53;20.33;;;;;;;;;;6249590;28;20048;-68
2022/12/11 04:46:00;;;;;;;81.47;20.25;;;;;;;;;;6245691;28;20423;-65
2022/12/11 04:49:00;;;;;;;78.53;19.30;;;;;;;;;;6244748;28;20057;-66
2022/12/11 04:52:02;;;;;;;71.93;19.55;;;;;;;;;;6247165;28;20142;-72
2022/12/11 04:55:04;;;;;;;71.95;19.02;;;;;;;;;;6248777;28;20037;-66
2022/12/11 04:58:05;;;;;;;83.53;22.88;;;;;;;;;;6264866;28;20541;-70
2022/12/11 05:01:07;;;;;;;81.05;19.02;;;;;;;;;;6252173;28;20083;-67
2022/12/11 05:04:08;;;;;;;83.35;21.02;;;;;;;;;;6248407;28;20059;-67
2022/12/11 05:07:09;;;;;;;79.38;19.58;;;;;;;;;;6251460;28;20586;-66
2022/12/11 05:10:10;;;;;;;82.23;21.63;;;;;;;;;;6250305;28;20047;-67
2022/12/11 05:13:10;;;;;;;85.50;20.98;;;;;;;;;;6252500;28;20302;-66
2022/12/11 05:16:13;;;;;;;75.50;21.92;;;;;;;;;;6254104;28;20059;-66
2022/12/11 05:19:15;;;;;;;82.97;22.63;;;;;;;;;;6250986;28;20103;-66
2022/12/11 05:22:17;;;;;;;70.35;19.60;;;;;;;;;;6252983;28;20045;-66
2022/12/11 05:25:17;;;;;;;71.50;19.88;;;;;;;;;;6252500;28;20052;-76
2022/12/11 05:28:18;;;;;;;76.63;20.40;;;;;;;;;;6251145;28;20536;-75
2022/12/11 05:31:21;;;;;;;72.50;19.58;;;;;;;;;;6256168;28;20116;-67
2022/12/11 05:34:22;;;;;;;81.47;21.83;;;;;;;;;;6266987;28;20369;-67
2022/12/11 05:37:23;;;;;;;72.95;20.80;;;;;;;;;;6255468;28;20037;-77
2022/12/11 05:40:23;;;;;;;106.97;24.85;;;;;;;;;;6266574;28;20103;-71
2022/12/11 05:43:25;;;;;;;115.65;28.40;;;;;;;;;;6261736;28;20052;-66
2022/12/11 05:46:28;;;;;;;110.32;28.75;;;;;;;;;;6249208;28;20411;-67
2022/12/11 05:49:30;;;;;;;74.93;21.83;;;;;;;;;;6251835;28;20463;-68
2022/12/11 05:52:32;;;;;;;108.10;29.98;;;;;;;;;;6256739;28;20488;-67
2022/12/11 05:55:35;;;;;;;113.35;30.65;;;;;;;;;;6250098;28;20049;-77
2022/12/11 05:58:37;;;;;;;94.85;23.90;;;;;;;;;;6249310;28;20917;-66
2022/12/11 06:01:40;;;;;;;70.73;20.03;;;;;;;;;;6250913;28;20045;-67
2022/12/11 06:04:41;;;;;;;119.22;28.10;;;;;;;;;;6250101;28;20083;-70
2022/12/11 06:07:42;;;;;;;75.85;19.05;;;;;;;;;;6248674;28;20128;-67
2022/12/11 06:10:46;;;;;;;75.97;19.40;;;;;;;;;;6251922;28;20042;-66
2022/12/11 06:13:47;;;;;;;66.93;18.88;;;;;;;;;;6252304;28;20052;-66
2022/12/11 06:16:48;;;;;;;83.00;19.80;;;;;;;;;;6254922;28;20045;-73
2022/12/11 06:19:49;;;;;;;67.87;20.23;;;;;;;;;;6249305;28;20052;-68
2022/12/11 06:22:50;;;;;;;60.78;16.45;;;;;;;;;;6249131;28;20136;-67
2022/12/11 06:25:50;;;;;;;60.35;16.00;;;;;;;;;;6249561;28;20057;-67
2022/12/11 06:28:51;;;;;;;62.65;15.65;;;;;;;;;;6247398;28;20065;-67
2022/12/11 06:31:52;;;;;;;55.17;15.73;;;;;;;;;;6248122;28;20103;-66
2022/12/11 06:34:53;;;;;;;69.72;17.85;;;;;;;;;;6249395;28;20049;-66
2022/12/11 06:37:53;;;;;;;75.80;17.98;;;;;;;;;;6248689;28;20045;-67
2022/12/11 06:40:59;;;;;;;72.72;18.25;;;;;;;;;;6249250;28;20041;-66
2022/12/11 06:43:59;;;;;;;62.90;15.45;;;;;;;;;;6249105;28;20145;-66
2022/12/11 06:47:00;;;;;;;58.83;15.88;;;;;;;;;;6249191;28;20561;-67
2022/12/11 06:50:01;;;;;;;62.20;16.38;;;;;;;;;;6260316;28;20056;-66
2022/12/11 06:53:02;;;;;;;62.05;16.70;;;;;;;;;;6265200;28;20484;-70
2022/12/11 06:56:08;;;;;;;51.92;15.88;;;;;;;;;;6248973;28;20060;-68
2022/12/11 06:59:11;;;;;;;58.20;17.75;;;;;;;;;;6251749;28;20053;-67
2022/12/11 07:02:13;;;;;;;71.07;18.65;;;;;;;;;;6269227;28;20099;-66
2022/12/11 07:05:14;;;;;;;;;;;;;;;;;;6255428;28;20095;-76
2022/12/11 07:08:15;;;;;;;57.13;16.15;;;;;;;;;;6249004;28;19933;-66
2022/12/11 07:11:18;;;;;;;73.93;19.20;;;;;;;;;;6251771;28;20052;-66
2022/12/11 07:14:19;;;;;;;80.45;25.25;;;;;;;;;;6246996;28;20037;-77
2022/12/11 07:17:20;;;;;;;76.95;23.25;;;;;;;;;;6250107;28;20037;-67
2022/12/11 07:20:20;;;;;;;67.68;18.23;;;;;;;;;;6249841;28;20103;-66
2022/12/11 07:23:21;;;;;;;67.75;18.70;;;;;;;;;;6247532;28;20049;-67
2022/12/11 07:26:21;;;;;;;63.90;17.90;;;;;;;;;;6247664;28;20037;-67
2022/12/11 07:29:22;;;;;;;59.70;18.63;;;;;;;;;;6248115;28;20052;-69
2022/12/11 07:32:23;;;;;;;71.32;19.63;;;;;;;;;;6248082;28;20373;-67
2022/12/11 07:35:24;;;;;;;70.78;20.40;;;;;;;;;;6250299;28;20129;-67
2022/12/11 07:38:24;;;;;;;75.93;22.10;;;;;;;;;;6261570;28;20041;-66
2022/12/11 07:41:27;;;;;;;75.30;20.38;;;;;;;;;;6246683;28;20060;-71
2022/12/11 07:44:27;;;;;;;;;;;;;;;;;;6248320;28;20440;-68
2022/12/11 07:47:28;;;;;;;65.97;16.95;;;;;;;;;;6261328;28;20401;-66
2022/12/11 07:50:29;;;;;;;50.50;15.88;;;;;;;;;;6265462;28;20053;-67
2022/12/11 07:53:29;;;;;;;67.88;18.13;;;;;;;;;;6253985;28;20072;-68
2022/12/11 07:56:30;;;;;;;60.72;17.13;;;;;;;;;;6243179;28;20045;-66
2022/12/11 07:59:31;;;;;;;64.22;16.98;;;;;;;;;;6256053;28;20057;-67
2022/12/11 08:02:32;;;;;;;66.68;17.88;;;;;;;;;;6266213;28;20048;-74
2022/12/11 08:05:32;;;;;;;61.17;17.13;;;;;;;;;;6250952;28;20456;-67
2022/12/11 08:08:33;;;;;;;65.68;18.33;;;;;;;;;;6251884;28;20472;-67
2022/12/11 08:11:35;;;;;;;66.45;17.88;;;;;;;;;;6246330;28;20049;-67
2022/12/11 08:14:35;;;;;;;60.80;17.17;;;;;;;;;;6247914;28;20045;-75
2022/12/11 08:17:36;;;;;;;68.75;18.80;;;;;;;;;;6240586;28;20095;-67
2022/12/11 08:20:38;;;;;;;74.53;20.75;;;;;;;;;;6251395;28;20408;-67
2022/12/11 08:23:40;;;;;;;83.78;26.92;;;;;;;;;;6258109;28;20450;-68
2022/12/11 08:26:40;;;;;;;69.13;19.10;;;;;;;;;;6259964;28;20095;-73
2022/12/11 08:29:41;;;;;;;71.00;20.60;;;;;;;;;;6262126;28;20786;-67
2022/12/11 08:32:42;;;;;;;57.80;17.65;;;;;;;;;;6266890;28;20052;-67
2022/12/11 08:35:44;;;;;;;66.00;17.73;;;;;;;;;;6256353;28;20476;-67
2022/12/11 08:38:45;;;;;;;60.47;17.58;;;;;;;;;;6262879;28;20515;-67
2022/12/11 08:41:46;;;;;;;62.95;18.58;;;;;;;;;;6260403;28;20046;-66
2022/12/11 08:44:46;;;;;;;61.03;16.88;;;;;;;;;;6243765;28;20041;-67
2022/12/11 08:47:47;;;;;;;70.15;17.95;;;;;;;;;;6244847;28;20044;-67
2022/12/11 08:50:49;;;;;;;66.47;19.40;;;;;;;;;;6243394;28;20049;-66
2022/12/11 08:53:50;;;;;;;64.47;17.23;;;;;;;;;;6255363;28;20041;-66
2022/12/11 08:56:51;;;;;;;60.47;18.17;;;;;;;;;;6266134;28;20045;-64
2022/12/11 08:59:51;;;;;;;54.13;16.65;;;;;;;;;;6267328;28;20059;-63
2022/12/11 09:02:52;;;;;;;74.05;20.23;;;;;;;;;;6267425;28;20033;-63
2022/12/11 09:05:53;;;;;;;62.65;18.27;;;;;;;;;;6259591;28;20079;-62
2022/12/11 09:08:54;;;;;;;74.38;22.38;;;;;;;;;;6271799;28;20037;-69
2022/12/11 09:11:55;;;;;;;68.93;18.67;;;;;;;;;;6267688;28;20137;-66
2022/12/11 09:14:56;;;;;;;65.47;18.40;;;;;;;;;;6247557;28;20046;-67
2022/12/11 09:17:57;;;;;;;88.22;24.67;;;;;;;;;;6244729;28;20084;-67
2022/12/11 09:21:04;;;;;;;73.20;20.73;;;;;;;;;;6246357;28;20053;-69
2022/12/11 09:24:05;;;;;;;72.45;19.92;;;;;;;;;;6245903;28;20048;-68
2022/12/11 09:27:06;;;;;;;57.72;17.30;;;;;;;;;;6244286;28;20442;-68
2022/12/11 09:30:07;;;;;;;56.75;15.82;;;;;;;;;;6247183;28;20056;-68
2022/12/11 09:33:07;;;;;;;58.70;17.88;;;;;;;;;;6244413;28;20056;-68
2022/12/11 09:36:10;;;;;;;61.78;18.08;;;;;;;;;;6243162;28;20041;-67
2022/12/11 09:39:11;;;;;;;;;;;;;;;;;;6248699;28;20418;-68
2022/12/11 09:42:42;;;;;;;68.28;17.00;;;;;;;;;;6244767;28;19928;-67
2022/12/11 09:45:42;;;;;;;60.33;19.42;;;;;;;;;;6241053;28;20042;-68
2022/12/11 09:48:48;;;;;;;59.13;17.35;;;;;;;;;;6242718;28;20830;-67
2022/12/11 09:52:21;;;;;;;57.15;18.05;;;;;;;;;;6245980;28;20049;-67
2022/12/11 09:55:24;;;;;;;59.10;16.75;;;;;;;;;;6250307;28;20077;-68
2022/12/11 09:58:33;;;;;;;64.85;19.30;;;;;;;;;;6249320;28;20052;-68
2022/12/11 10:01:49;;;;;;;48.45;15.07;;;;;;;;;;6248229;28;20045;-70
2022/12/11 10:05:20;;;;;;;55.90;14.73;;;;;;;;;;6258951;28;20404;-68
2022/12/11 10:08:47;;;;;;;53.47;14.82;;;;;;;;;;6261430;28;20625;-68
2022/12/11 10:12:09;;;;;;;55.78;15.65;;;;;;;;;;6253989;28;20108;-69
2022/12/11 10:15:16;;;;;;;48.17;15.45;;;;;;;;;;6249379;28;22029;-67
2022/12/11 10:18:21;;;;;;;49.55;14.40;;;;;;;;;;6251634;28;20178;-67
2022/12/11 10:21:23;;;;;;;50.90;14.88;;;;;;;;;;6260315;28;20053;-69
2022/12/11 10:24:48;;;;;;;67.03;18.10;;;;;;;;;;6251677;28;20122;-68
2022/12/11 10:27:49;;;;;;;46.72;14.57;;;;;;;;;;6252715;28;20045;-67
2022/12/11 10:31:05;;;;;;;70.75;19.40;;;;;;;;;;6250425;28;20836;-67
2022/12/11 10:34:13;;;;;;;49.25;16.60;;;;;;;;;;6259903;28;20053;-67
2022/12/11 10:37:14;;;;;;;49.97;15.35;;;;;;;;;;6256559;28;20116;-67
2022/12/11 10:40:16;;;;;;;61.90;17.90;;;;;;;;;;6250648;28;20069;-68
2022/12/11 10:43:16;;;;;;;54.63;17.13;;;;;;;;;;6267453;28;20045;-68
2022/12/11 10:46:17;;;;;;;60.40;17.63;;;;;;;;;;6255916;28;20179;-67
2022/12/11 10:49:29;;;;;;;71.97;20.48;;;;;;;;;;6250347;28;20582;-68
2022/12/11 10:52:36;;;;;;;;;;;;;;;;;;6253672;28;20051;-68
2022/12/11 10:55:44;;;;;;;80.38;22.48;;;;;;;;;;6251260;28;19928;-68
2022/12/11 10:58:48;;;;;;;89.00;25.05;;;;;;;;;;6249600;28;20483;-68
2022/12/11 11:01:49;;;;;;;80.07;23.10;;;;;;;;;;6248726;28;20083;-69
2022/12/11 11:04:51;;;;;;;65.53;19.77;;;;;;;;;;6248571;28;20079;-69
2022/12/11 11:08:13;;;;;;;66.95;19.33;;;;;;;;;;6249648;28;20443;-69
2022/12/11 11:11:33;;;;;;;61.75;18.15;;;;;;;;;;6248988;28;20052;-69
2022/12/11 11:14:34;;;;;;;65.90;19.67;;;;;;;;;;6249709;28;20056;-68
2022/12/11 11:17:42;;;;;;;70.97;19.45;;;;;;;;;;6267453;28;20132;-68
2022/12/11 11:20:46;;;;;;;62.92;17.98;;;;;;;;;;6244758;28;20057;-68
2022/12/11 11:23:47;;;;;;;62.65;18.17;;;;;;;;;;6262243;28;20451;-69
2022/12/11 11:26:48;;;;;;;58.17;17.02;;;;;;;;;;6269573;28;20045;-68
2022/12/11 11:29:58;;;;;;;62.47;17.25;;;;;;;;;;6269089;28;20049;-68
2022/12/11 11:33:04;;;;;;;67.25;19.08;;;;;;;;;;6268075;28;20426;-68
2022/12/11 11:36:07;;;;;;;68.55;20.35;;;;;;;;;;6268855;28;20053;-68
2022/12/11 11:39:21;;;;;;;81.78;23.35;;;;;;;;;;6268611;28;20047;-67
2022/12/11 11:42:56;;;;;;;72.40;22.23;;;;;;;;;;6268366;28;20481;-68
2022/12/11 11:46:20;;;;;;;63.10;19.33;;;;;;;;;;6267876;28;20412;-68
2022/12/11 11:49:44;;;;;;;65.28;19.00;;;;;;;;;;6266847;28;20099;-68
2022/12/11 11:52:55;;;;;;;64.15;19.45;;;;;;;;;;6245256;28;20049;-68
2022/12/11 11:56:01;;;;;;;70.45;19.48;;;;;;;;;;6248571;28;20045;-69
2022/12/11 11:59:30;;;;;;;83.80;22.42;;;;;;;;;;6246872;28;20452;-69
2022/12/11 12:02:31;;;;;;;108.00;29.58;;;;;;;;;;6247718;28;20064;-68
2022/12/11 12:05:48;;;;;;;71.97;19.92;;;;;;;;;;6250018;28;20044;-69
2022/12/11 12:09:10;;;;;;;62.88;18.27;;;;;;;;;;6255771;28;20419;-70
2022/12/11 12:12:28;;;;;;;61.05;18.77;;;;;;;;;;6247709;28;20044;-68
2022/12/11 12:15:35;;;;;;;68.32;21.25;;;;;;;;;;6256119;28;20052;-68
2022/12/11 12:19:26;;;;;;;71.07;20.15;;;;;;;;;;6260204;28;20052;-68
2022/12/11 12:22:41;;;;;;;79.80;22.02;;;;;;;;;;6245997;28;20109;-69
2022/12/11 12:26:07;;;;;;;94.78;24.27;;;;;;;;;;6263271;28;20110;-69
2022/12/11 12:29:17;;;;;;;81.78;22.63;;;;;;;;;;6247039;28;20083;-70
2022/12/11 12:32:27;;;;;;;79.65;24.45;;;;;;;;;;6248846;28;20057;-69
2022/12/11 12:35:48;;;;;;;80.78;22.17;;;;;;;;;;6245796;28;20118;-69
2022/12/11 12:39:06;;;;;;;83.15;23.67;;;;;;;;;;6246515;28;20049;-68
2022/12/11 12:42:30;;;;;;;79.82;22.63;;;;;;;;;;6262590;28;20567;-68
2022/12/11 12:46:06;;;;;;;81.10;24.15;;;;;;;;;;6252138;28;20060;-68
2022/12/11 12:49:23;;;;;;;89.35;24.70;;;;;;;;;;6239830;28;20558;-68
2022/12/11 12:52:42;;;;;;;90.50;22.85;;;;;;;;;;6248521;28;20045;-68
2022/12/11 12:55:46;;;;;;;86.90;23.33;;;;;;;;;;6243773;28;20075;-68
2022/12/11 12:58:47;;;;;;;76.28;24.02;;;;;;;;;;6248702;28;20135;-68
2022/12/11 13:01:59;;;;;;;78.40;23.20;;;;;;;;;;6247741;28;20547;-68
2022/12/11 13:05:17;;;;;;;81.18;22.02;;;;;;;;;;6259597;28;20053;-69
2022/12/11 13:08:24;;;;;;;77.80;22.70;;;;;;;;;;6259466;28;20057;-69
2022/12/11 13:11:33;;;;;;;78.60;21.33;;;;;;;;;;6247905;28;20132;-69
2022/12/11 13:14:34;;;;;;;76.45;21.83;;;;;;;;;;6249589;28;20102;-68
2022/12/11 13:17:37;;;;;;;66.60;19.13;;;;;;;;;;6265363;28;20061;-68
2022/12/11 13:20:47;;;;;;;76.20;21.13;;;;;;;;;;6248764;28;20056;-69
2022/12/11 13:23:47;;;;;;;80.57;22.10;;;;;;;;;;6248037;28;20045;-69
2022/12/11 13:26:49;;;;;;;79.00;20.58;;;;;;;;;;6263498;28;20118;-69
2022/12/11 13:29:51;;;;;;;83.45;22.13;;;;;;;;;;6252320;28;20052;-68
2022/12/11 13:33:05;;;;;;;79.05;21.98;;;;;;;;;;6245858;28;20044;-68
2022/12/11 13:36:10;;;;;;;82.28;24.23;;;;;;;;;;6258895;28;20793;-69
2022/12/11 13:39:19;;;;;;;79.53;22.90;;;;;;;;;;6256437;28;20051;-68
2022/12/11 13:42:29;;;;;;;79.75;24.20;;;;;;;;;;6256611;28;20053;-67
2022/12/11 13:45:58;;;;;;;80.72;22.58;;;;;;;;;;6261377;28;20412;-65
2022/12/11 13:49:03;;;;;;;79.57;24.90;;;;;;;;;;6257221;28;20144;-66
2022/12/11 13:52:05;;;;;;;85.18;21.90;;;;;;;;;;6258438;28;20138;-67
2022/12/11 13:55:20;;;;;;;86.22;26.17;;;;;;;;;;6260129;28;20065;-64
2022/12/11 13:58:22;;;;;;;82.72;24.05;;;;;;;;;;6260548;28;20114;-66
2022/12/11 14:01:30;;;;;;;88.53;25.40;;;;;;;;;;6254624;28;20072;-62
2022/12/11 14:04:33;;;;;;;89.63;26.65;;;;;;;;;;6257477;28;20624;-61
2022/12/11 14:07:37;;;;;;;88.75;26.35;;;;;;;;;;6259832;28;20052;-62
2022/12/11 14:10:38;;;;;;;85.57;25.02;;;;;;;;;;6256939;28;20041;-63
2022/12/11 14:13:40;;;;;;;79.93;23.97;;;;;;;;;;6253846;28;20136;-61
2022/12/11 14:16:41;;;;;;;85.25;24.00;;;;;;;;;;6253441;28;20130;-61
2022/12/11 14:19:48;;;;;;;88.13;24.70;;;;;;;;;;6260271;28;20450;-66
2022/12/11 14:22:49;;;;;;;82.03;23.05;;;;;;;;;;6256865;28;20590;-64
2022/12/11 14:26:00;;;;;;;85.50;27.13;;;;;;;;;;6257320;28;20051;-64
2022/12/11 14:29:01;;;;;;;88.15;24.80;;;;;;;;;;6257706;28;20389;-62
2022/12/11 14:32:05;;;;;;;87.60;25.33;;;;;;;;;;6257432;28;20057;-64
2022/12/11 14:35:23;;;;;;;86.05;25.98;;;;;;;;;;6257569;28;20056;-65
2022/12/11 14:38:35;;;;;;;82.05;24.73;;;;;;;;;;6257079;28;20598;-66
2022/12/11 14:41:52;;;;;;;75.75;23.45;;;;;;;;;;6257332;28;20070;-66
2022/12/11 14:45:22;;;;;;;80.15;24.73;;;;;;;;;;6259913;28;20041;-64
2022/12/11 14:48:33;;;;;;;74.38;22.33;;;;;;;;;;6257032;28;20072;-64
2022/12/11 14:51:37;;;;;;;87.20;24.02;;;;;;;;;;6255176;28;20048;-64
2022/12/11 14:54:43;;;;;;;84.63;25.17;;;;;;;;;;6259296;28;20512;-62
2022/12/11 14:57:47;;;;;;;79.38;25.60;;;;;;;;;;6254396;28;20053;-63
2022/12/11 15:01:04;;;;;;;74.18;23.38;;;;;;;;;;6251561;28;20045;-62
2022/12/11 15:04:15;;;;;;;77.47;22.60;;;;;;;;;;6254484;28;20055;-73
2022/12/11 15:07:20;;;;;;;81.03;24.90;;;;;;;;;;6254784;28;20608;-63
2022/12/11 15:10:23;;;;;;;69.13;20.15;;;;;;;;;;6250198;28;20052;-67
2022/12/11 15:13:24;;;;;;;77.20;22.55;;;;;;;;;;6254118;28;20041;-63
2022/12/11 15:16:28;;;;;;;86.07;24.20;;;;;;;;;;6256994;28;20060;-69
2022/12/11 15:19:32;;;;;;;54.38;19.25;;;;;;;;;;6253818;28;20045;-61
2022/12/11 15:22:34;;;;;;;64.53;21.15;;;;;;;;;;6250550;28;20431;-65
2022/12/11 15:25:34;;;;;;;71.10;20.87;;;;;;;;;;6258082;28;20103;-64
2022/12/11 15:28:37;;;;;;;72.85;19.88;;;;;;;;;;6257325;28;20057;-63
2022/12/11 15:31:38;;;;;;;76.78;20.85;;;;;;;;;;6255485;28;20500;-64
2022/12/11 15:34:47;;;;;;;67.50;20.98;;;;;;;;;;6257426;28;20060;-62
2022/12/11 15:37:52;;;;;;;68.45;20.52;;;;;;;;;;6258396;28;20044;-63
2022/12/11 15:40:54;;;;;;;71.85;22.77;;;;;;;;;;6256088;28;20057;-63
2022/12/11 15:43:56;;;;;;;71.55;21.08;;;;;;;;;;6255318;28;20411;-62
2022/12/11 15:46:58;;;;;;;75.97;22.60;;;;;;;;;;6258491;28;20059;-64
2022/12/11 15:50:19;;;;;;;74.22;21.90;;;;;;;;;;6256435;28;20059;-62
2022/12/11 15:53:20;;;;;;;71.10;22.10;;;;;;;;;;6255120;28;20431;-64
2022/12/11 15:56:21;;;;;;;78.97;22.52;;;;;;;;;;6255864;28;20071;-64
2022/12/11 15:59:21;;;;;;;67.13;21.85;;;;;;;;;;6257228;28;20075;-65
2022/12/11 16:02:26;;;;;;;74.05;21.80;;;;;;;;;;6254209;28;20069;-66
2022/12/11 16:05:27;;;;;;;75.80;23.13;;;;;;;;;;6255834;28;20044;-63
2022/12/11 16:08:28;;;;;;;78.00;24.52;;;;;;;;;;6256921;28;20657;-63
2022/12/11 16:11:28;;;;;;;85.60;24.75;;;;;;;;;;6253692;28;20566;-63
2022/12/11 16:14:29;;;;;;;72.70;23.13;;;;;;;;;;6256085;28;21051;-63
2022/12/11 16:17:30;;;;;;;76.60;23.27;;;;;;;;;;6257365;28;20052;-62
2022/12/11 16:20:33;;;;;;;66.93;20.60;;;;;;;;;;6256501;28;20052;-62
2022/12/11 16:23:33;;;;;;;69.78;22.75;;;;;;;;;;6256467;28;20041;-60
2022/12/11 16:26:34;;;;;;;78.47;23.02;;;;;;;;;;6257619;28;20055;-61
2022/12/11 16:29:36;;;;;;;73.50;21.58;;;;;;;;;;6259085;28;20480;-60
2022/12/11 16:32:37;;;;;;;72.97;21.52;;;;;;;;;;6254605;28;20041;-68
2022/12/11 16:35:39;;;;;;;81.47;22.77;;;;;;;;;;6255383;28;20063;-68
2022/12/11 16:38:40;;;;;;;72.25;22.58;;;;;;;;;;6255178;28;20053;-66
2022/12/11 16:41:40;;;;;;;70.80;20.33;;;;;;;;;;6255160;28;20473;-69
2022/12/11 16:44:41;;;;;;;75.28;22.67;;;;;;;;;;6255295;28;20053;-69
2022/12/11 16:47:42;;;;;;;80.75;23.27;;;;;;;;;;6256343;28;20168;-68
2022/12/11 16:50:43;;;;;;;82.47;22.52;;;;;;;;;;6255122;28;21575;-66
2022/12/11 16:53:43;;;;;;;79.90;23.63;;;;;;;;;;6252089;28;20060;-67
2022/12/11 16:56:44;;;;;;;77.95;21.98;;;;;;;;;;6252288;28;20064;-66
2022/12/11 16:59:46;;;;;;;78.43;23.50;;;;;;;;;;6252326;28;20387;-67
2022/12/11 17:02:47;;;;;;;;;;;;;;;;;;6248749;28;20469;-66
2022/12/11 17:05:47;;;;;;;74.45;20.80;;;;;;;;;;6254108;28;19928;-67
2022/12/11 17:08:48;;;;;;;82.22;23.42;;;;;;;;;;6255504;28;20110;-68
2022/12/11 17:11:48;;;;;;;79.13;22.45;;;;;;;;;;6253306;28;20056;-68
2022/12/11 17:14:49;;;;;;;82.30;24.15;;;;;;;;;;6249250;28;20111;-67
2022/12/11 17:17:50;;;;;;;80.63;24.05;;;;;;;;;;6249542;28;20045;-67
2022/12/11 17:20:50;;;;;;;72.25;21.67;;;;;;;;;;6247996;28;20041;-68
2022/12/11 17:23:51;;;;;;;92.70;26.08;;;;;;;;;;6247747;28;20057;-72
2022/12/11 17:26:54;;;;;;;84.28;24.27;;;;;;;;;;6248740;28;20747;-68
2022/12/11 17:29:54;;;;;;;74.30;23.27;;;;;;;;;;6250817;28;20080;-66
2022/12/11 17:32:55;;;;;;;80.53;24.55;;;;;;;;;;6245666;28;20047;-66
2022/12/11 17:35:59;;;;;;;89.70;26.65;;;;;;;;;;6248694;28;20495;-67
2022/12/11 17:39:00;;;;;;;78.60;23.80;;;;;;;;;;6250026;28;20068;-66
2022/12/11 17:42:00;;;;;;;88.80;23.80;;;;;;;;;;6247002;28;20396;-66
2022/12/11 17:45:02;;;;;;;83.10;24.38;;;;;;;;;;6249278;28;20053;-69
2022/12/11 17:48:02;;;;;;;83.60;24.95;;;;;;;;;;6252226;28;20147;-66
2022/12/11 17:51:07;;;;;;;86.05;25.45;;;;;;;;;;6248979;28;20332;-67
2022/12/11 17:54:07;;;;;;;80.45;23.92;;;;;;;;;;6250390;28;20063;-67
2022/12/11 17:57:08;;;;;;;86.20;26.58;;;;;;;;;;6249240;28;20973;-69
2022/12/11 18:00:10;;;;;;;89.75;25.77;;;;;;;;;;6251570;28;20049;-67
2022/12/11 18:03:12;;;;;;;88.10;26.55;;;;;;;;;;6249836;28;20055;-68
2022/12/11 18:06:14;;;;;;;95.65;25.85;;;;;;;;;;6253463;28;20091;-67
2022/12/11 18:09:15;;;;;;;74.53;23.80;;;;;;;;;;6251867;28;20061;-67
2022/12/11 18:12:15;;;;;;;80.18;23.13;;;;;;;;;;6251058;28;20083;-68